createdAt,value
2023-03-13T00:01:42.318Z,99763.02
2023-03-13T00:04:12.510Z,99764.56
2023-03-13T00:06:44.689Z,99764.42
2023-03-13T00:09:14.842Z,99763.60
2023-03-13T00:11:45.913Z,99765.29
2023-03-13T00:14:15.220Z,99766.63
2023-03-13T00:16:43.748Z,99766.38
2023-03-13T00:19:12.383Z,99765.43
2023-03-13T00:21:41.574Z,99766.79
2023-03-13T00:24:17.740Z,99765.02
2023-03-13T00:26:46.071Z,99771.06
2023-03-13T00:29:14.236Z,99775.17
2023-03-13T00:31:47.349Z,99770.10
2023-03-13T00:34:18.006Z,99778.05
2023-03-13T00:36:46.948Z,99775.03
2023-03-13T00:39:24.658Z,99778.87
2023-03-13T00:41:53.216Z,99776.39
2023-03-13T00:44:23.637Z,99780.05
2023-03-13T00:46:52.034Z,99783.58
2023-03-13T00:49:20.332Z,99787.34
2023-03-13T00:51:48.605Z,99790.30
2023-03-13T00:54:16.545Z,99787.34
2023-03-13T00:56:45.338Z,99785.12
2023-03-13T00:59:14.625Z,99784.95
2023-03-13T01:01:45.815Z,99776.90
2023-03-13T01:04:14.580Z,99777.66
2023-03-13T01:06:45.694Z,99782.21
2023-03-13T01:09:15.541Z,99780.84
2023-03-13T01:11:45.944Z,99781.42
2023-03-13T01:14:17.458Z,99779.76
2023-03-13T01:16:48.721Z,99783.16
2023-03-13T01:19:17.211Z,99785.28
2023-03-13T01:21:47.193Z,99779.41
2023-03-13T01:24:16.946Z,99776.98
2023-03-13T01:26:50.727Z,99779.20
2023-03-13T01:29:20.572Z,99776.83
2023-03-13T01:31:49.243Z,99777.40
2023-03-13T01:34:23.374Z,99782.95
2023-03-13T01:36:55.183Z,99787.81
2023-03-13T01:39:23.490Z,99793.86
2023-03-13T01:41:56.795Z,99798.92
2023-03-13T01:44:26.442Z,99804.22
2023-03-13T01:46:55.765Z,99810.58
2023-03-13T01:49:33.700Z,99812.95
2023-03-13T01:52:08.986Z,99822.53
2023-03-13T01:54:56.256Z,99824.45
2023-03-13T01:57:30.067Z,99828.30
2023-03-13T02:00:16.479Z,99832.51
2023-03-13T02:02:50.596Z,99829.63
2023-03-13T02:05:23.066Z,99835.46
2023-03-13T02:07:56.140Z,99845.53
2023-03-13T02:10:25.809Z,99848.64
2023-03-13T02:13:01.955Z,99851.11
2023-03-13T02:15:33.466Z,99850.60
2023-03-13T02:18:01.457Z,99853.63
2023-03-13T02:20:33.584Z,99853.72
2023-03-13T02:23:04.037Z,99857.95
2023-03-13T02:25:49.028Z,99860.04
2023-03-13T02:28:25.597Z,99860.97
2023-03-13T02:30:58.946Z,99857.25
2023-03-13T02:33:29.496Z,99856.38
2023-03-13T02:36:00.157Z,99856.65
2023-03-13T02:38:30.480Z,99858.80
2023-03-13T02:40:59.509Z,99856.71
2023-03-13T02:43:31.571Z,99863.48
2023-03-13T02:46:17.648Z,99865.94
2023-03-13T02:48:54.952Z,99870.69
2023-03-13T02:51:42.221Z,99874.50
2023-03-13T02:54:25.158Z,99873.83
2023-03-13T02:56:56.075Z,99875.38
2023-03-13T02:59:25.273Z,99881.63
2023-03-13T03:01:53.320Z,99882.91
2023-03-13T03:04:22.402Z,99883.00
2023-03-13T03:06:54.400Z,99883.94
2023-03-13T03:09:23.170Z,99884.22
2023-03-13T03:11:56.400Z,99881.19
2023-03-13T03:14:27.080Z,99885.20
2023-03-13T03:16:55.925Z,99886.76
2023-03-13T03:19:31.547Z,99889.22
2023-03-13T03:22:00.273Z,99890.36
2023-03-13T03:24:28.592Z,99889.17
2023-03-13T03:26:56.727Z,99894.06
2023-03-13T03:29:28.361Z,99897.69
2023-03-13T03:31:57.144Z,99900.65
2023-03-13T03:34:26.188Z,99908.59
2023-03-13T03:36:56.351Z,99913.55
2023-03-13T03:39:24.974Z,99915.91
2023-03-13T03:41:53.004Z,99923.34
2023-03-13T03:44:22.546Z,99928.02
2023-03-13T03:46:58.724Z,99938.13
2023-03-13T03:49:28.243Z,99940.83
2023-03-13T03:51:56.668Z,99938.05
2023-03-13T03:54:29.545Z,99945.45
2023-03-13T03:56:58.306Z,99949.77
2023-03-13T03:59:32.870Z,99950.84
2023-03-13T04:02:08.871Z,99959.45
2023-03-13T04:04:37.626Z,99966.38
2023-03-13T04:07:10.220Z,99966.35
2023-03-13T04:09:38.365Z,99964.05
2023-03-13T04:12:09.242Z,99966.33
2023-03-13T04:14:45.592Z,99973.35
2023-03-13T04:17:17.308Z,99976.37
2023-03-13T04:19:48.317Z,99981.23
2023-03-13T04:22:16.699Z,99989.64
2023-03-13T04:24:50.360Z,99986.56
2023-03-13T04:27:19.613Z,99985.17
2023-03-13T04:29:48.873Z,99986.23
2023-03-13T04:32:36.741Z,99996.20
2023-03-13T04:35:25.558Z,99998.94
2023-03-13T04:38:08.327Z,99997.36
2023-03-13T04:40:58.214Z,100005.40
2023-03-13T04:43:30.134Z,100008.63
2023-03-13T04:46:08.921Z,100010.97
2023-03-13T04:48:56.266Z,100011.73
2023-03-13T04:51:44.202Z,100012.02
2023-03-13T04:54:27.561Z,100016.04
2023-03-13T04:57:20.947Z,100017.54
2023-03-13T05:00:12.661Z,100025.27
2023-03-13T05:03:00.637Z,100026.63
2023-03-13T05:05:49.776Z,100031.92
2023-03-13T05:08:35.787Z,100032.19
2023-03-13T05:11:23.269Z,100031.11
2023-03-13T05:14:16.757Z,100036.35
2023-03-13T05:17:13.034Z,100039.20
2023-03-13T05:19:58.049Z,100033.52
2023-03-13T05:22:58.518Z,100037.86
2023-03-13T05:25:35.819Z,100042.98
2023-03-13T05:28:17.410Z,100041.45
2023-03-13T05:32:34.685Z,100047.88
2023-03-13T05:35:15.653Z,100049.63
2023-03-13T05:38:00.271Z,100050.38
2023-03-13T05:40:36.747Z,100061.10
2023-03-13T05:43:03.380Z,100060.52
2023-03-13T05:45:53.552Z,100070.05
2023-03-13T05:48:41.633Z,100066.94
2023-03-13T05:51:25.907Z,100073.38
2023-03-13T05:54:18.691Z,100078.17
2023-03-13T05:57:08.366Z,100075.41
2023-03-13T05:59:45.279Z,100083.20
2023-03-13T06:02:41.151Z,100083.34
2023-03-13T06:05:14.614Z,100081.16
2023-03-13T06:07:41.697Z,100082.64
2023-03-13T06:10:09.507Z,100088.02
2023-03-13T06:12:36.416Z,100091.84
2023-03-13T06:15:06.969Z,100095.81
2023-03-13T06:17:52.732Z,100102.02
2023-03-13T06:20:19.450Z,100105.56
2023-03-13T06:22:52.076Z,100109.38
2023-03-13T06:25:19.240Z,100104.27
2023-03-13T06:27:45.828Z,100112.71
2023-03-13T06:30:13.291Z,100101.88
2023-03-13T06:32:40.323Z,100108.52
2023-03-13T06:35:08.618Z,100109.03
2023-03-13T06:37:35.962Z,100103.55
2023-03-13T06:40:04.411Z,100102.04
2023-03-13T06:42:31.685Z,100103.85
2023-03-13T06:44:58.347Z,100106.68
2023-03-13T06:47:25.591Z,100108.39
2023-03-13T06:49:52.340Z,100114.33
2023-03-13T06:52:20.273Z,100119.73
2023-03-13T06:54:48.052Z,100125.89
2023-03-13T06:57:14.759Z,100130.91
2023-03-13T06:59:42.257Z,100128.09
2023-03-13T07:02:12.312Z,100132.59
2023-03-13T07:04:39.221Z,100129.56
2023-03-13T07:07:06.167Z,100130.55
2023-03-13T07:09:33.397Z,100133.69
2023-03-13T07:12:02.820Z,100130.73
2023-03-13T07:14:29.699Z,100132.83
2023-03-13T07:16:58.497Z,100134.30
2023-03-13T07:19:26.860Z,100138.73
2023-03-13T07:21:53.753Z,100138.54
2023-03-13T07:24:23.240Z,100140.21
2023-03-13T07:27:04.143Z,100147.77
2023-03-13T07:29:33.868Z,100136.02
2023-03-13T07:32:01.051Z,100135.79
2023-03-13T07:34:27.936Z,100144.73
2023-03-13T07:36:55.673Z,100136.56
2023-03-13T07:39:22.662Z,100133.11
2023-03-13T07:41:49.683Z,100133.52
2023-03-13T07:44:17.711Z,100138.19
2023-03-13T07:46:45.428Z,100141.66
2023-03-13T07:49:12.568Z,100155.06
2023-03-13T07:51:43.914Z,100127.86
2023-03-13T07:54:15.367Z,100133.04
2023-03-13T07:56:42.129Z,100130.91
2023-03-13T07:59:09.420Z,100127.47
2023-03-13T08:01:37.084Z,100125.16
2023-03-13T08:04:04.607Z,100124.76
2023-03-13T08:06:40.496Z,100121.52
2023-03-13T08:09:08.601Z,100118.52
2023-03-13T08:11:35.730Z,100119.70
2023-03-13T08:14:02.820Z,100126.04
2023-03-13T08:16:33.709Z,100131.77
2023-03-13T08:19:00.565Z,100139.34
2023-03-13T08:21:29.963Z,100138.33
2023-03-13T08:24:02.034Z,100146.17
2023-03-13T08:26:32.808Z,100141.43
2023-03-13T08:29:00.994Z,100147.05
2023-03-13T08:31:32.883Z,100156.54
2023-03-13T08:33:59.977Z,100153.63
2023-03-13T08:36:31.630Z,100145.98
2023-03-13T08:39:01.214Z,100139.52
2023-03-13T08:41:29.824Z,100142.66
2023-03-13T08:43:57.344Z,100144.10
2023-03-13T08:46:25.000Z,100158.85
2023-03-13T08:48:53.226Z,100163.04
2023-03-13T08:51:21.299Z,100154.50
2023-03-13T08:53:48.787Z,100142.29
2023-03-13T08:56:24.869Z,100141.61
2023-03-13T08:58:53.375Z,100132.04
2023-03-13T09:01:21.288Z,100128.77
2023-03-13T09:03:49.246Z,100132.60
2023-03-13T09:06:19.307Z,100134.08
2023-03-13T09:08:47.054Z,100131.57
2023-03-13T09:11:18.337Z,100124.38
2023-03-13T09:13:48.872Z,100126.77
2023-03-13T09:16:22.831Z,100121.45
2023-03-13T09:18:51.033Z,100118.84
2023-03-13T09:21:19.708Z,100121.78
2023-03-13T09:23:47.430Z,100126.45
2023-03-13T09:26:14.313Z,100127.10
2023-03-13T09:28:44.736Z,100133.71
2023-03-13T09:31:19.415Z,100120.65
2023-03-13T09:33:47.468Z,100111.47
2023-03-13T09:36:14.631Z,100114.00
2023-03-13T09:38:41.675Z,100122.65
2023-03-13T09:41:17.223Z,100117.20
2023-03-13T09:43:50.091Z,100118.94
2023-03-13T09:46:26.172Z,100127.20
2023-03-13T09:49:00.790Z,100117.38
2023-03-13T09:51:38.226Z,100105.52
2023-03-13T09:54:19.395Z,100103.21
2023-03-13T09:56:56.132Z,100103.44
2023-03-13T09:59:36.819Z,100104.98
2023-03-13T10:02:03.826Z,100091.15
2023-03-13T10:04:41.122Z,100093.42
2023-03-13T10:07:11.148Z,100090.64
2023-03-13T10:09:40.309Z,100094.64
2023-03-13T10:12:20.854Z,100090.59
2023-03-13T10:15:03.747Z,100075.90
2023-03-13T10:17:32.812Z,100081.81
2023-03-13T10:20:10.112Z,100092.36
2023-03-13T10:22:37.306Z,100079.27
2023-03-13T10:25:23.953Z,100085.58
2023-03-13T10:27:51.270Z,100068.09
2023-03-13T10:30:23.478Z,100069.44
2023-03-13T10:32:50.352Z,100074.64
2023-03-13T10:35:22.185Z,100065.17
2023-03-13T10:37:48.877Z,100063.63
2023-03-13T10:40:25.185Z,100060.46
2023-03-13T10:42:59.051Z,100051.25
2023-03-13T10:45:31.548Z,100053.06
2023-03-13T10:48:20.971Z,100039.16
2023-03-13T10:50:56.814Z,100059.48
2023-03-13T10:53:30.274Z,100071.41
2023-03-13T10:56:02.886Z,100036.67
2023-03-13T10:58:45.571Z,100038.56
2023-03-13T11:01:18.448Z,100035.40
2023-03-13T11:03:49.506Z,100037.21
2023-03-13T11:06:25.746Z,100019.57
2023-03-13T11:08:59.356Z,100006.80
2023-03-13T11:11:30.416Z,99998.05
2023-03-13T11:14:07.880Z,99996.52
2023-03-13T11:16:42.240Z,99997.50
2023-03-13T11:19:28.701Z,99997.10
2023-03-13T11:22:13.951Z,100000.09
2023-03-13T11:24:45.750Z,99987.94
2023-03-13T11:27:34.567Z,99985.70
2023-03-13T11:30:23.187Z,99976.55
2023-03-13T11:33:22.122Z,99975.77
2023-03-13T11:35:53.654Z,99981.05
2023-03-13T11:38:27.088Z,99973.13
2023-03-13T11:41:05.803Z,99970.09
2023-03-13T11:43:41.100Z,99963.98
2023-03-13T11:46:14.913Z,99959.77
2023-03-13T11:48:53.799Z,99956.06
2023-03-13T11:51:52.962Z,99958.16
2023-03-13T11:55:05.015Z,99951.09
2023-03-13T11:58:06.883Z,99959.20
2023-03-13T12:01:14.106Z,99961.63
2023-03-13T12:03:58.261Z,99948.22
2023-03-13T12:06:37.551Z,99935.61
2023-03-13T12:09:09.886Z,99929.71
2023-03-13T12:12:03.994Z,99940.67
2023-03-13T12:14:50.083Z,99944.66
2023-03-13T12:17:38.294Z,99949.57
2023-03-13T12:20:11.232Z,99934.95
2023-03-13T12:22:44.911Z,99935.85
2023-03-13T12:25:12.556Z,99938.44
2023-03-13T12:27:41.963Z,99955.19
2023-03-13T12:30:18.409Z,99930.40
2023-03-13T12:32:49.717Z,99931.03
2023-03-13T12:35:28.277Z,99919.32
2023-03-13T12:38:20.544Z,99923.31
2023-03-13T12:40:52.641Z,99939.76
2023-03-13T12:43:30.374Z,99935.48
2023-03-13T12:46:38.529Z,99938.39
2023-03-13T12:49:24.736Z,99927.76
2023-03-13T12:52:14.858Z,99945.36
2023-03-13T12:54:47.716Z,99937.73
2023-03-13T12:57:51.725Z,99930.00
2023-03-13T13:00:21.182Z,99929.30
2023-03-13T13:02:47.760Z,99930.92
2023-03-13T13:05:18.616Z,99937.30
2023-03-13T13:07:53.048Z,99920.32
2023-03-13T13:10:25.770Z,99912.58
2023-03-13T13:13:14.367Z,99913.81
2023-03-13T13:16:01.253Z,99909.05
2023-03-13T13:18:29.801Z,99911.55
2023-03-13T13:21:02.540Z,99914.44
2023-03-13T13:23:41.498Z,99916.11
2023-03-13T13:26:26.323Z,99917.09
2023-03-13T13:28:53.583Z,99912.39
2023-03-13T13:31:59.679Z,99904.36
2023-03-13T13:34:33.888Z,99898.99
2023-03-13T13:37:01.374Z,99891.16
2023-03-13T13:39:28.115Z,99891.75
2023-03-13T13:41:55.446Z,99893.02
2023-03-13T13:44:28.524Z,99881.83
2023-03-13T13:46:55.966Z,99886.19
2023-03-13T13:49:35.029Z,99872.19
2023-03-13T13:52:04.626Z,99859.89
2023-03-13T13:54:33.975Z,99869.88
2023-03-13T13:57:12.174Z,99878.79
2023-03-13T13:59:42.540Z,99880.63
2023-03-13T14:02:10.358Z,99883.42
2023-03-13T14:04:38.637Z,99874.87
2023-03-13T14:07:06.141Z,99878.02
2023-03-13T14:09:49.533Z,99883.19
2023-03-13T14:12:29.979Z,99885.75
2023-03-13T14:15:13.371Z,99885.27
2023-03-13T14:17:50.824Z,99883.16
2023-03-13T14:20:33.798Z,99877.85
2023-03-13T14:23:04.270Z,99881.84
2023-03-13T14:25:51.193Z,99886.92
2023-03-13T14:28:21.991Z,99884.23
2023-03-13T14:30:50.405Z,99872.45
2023-03-13T14:33:17.355Z,99863.02
2023-03-13T14:35:44.878Z,99866.20
2023-03-13T14:38:22.391Z,99852.00
2023-03-13T14:40:50.469Z,99857.48
2023-03-13T14:43:37.642Z,99851.04
2023-03-13T14:46:15.535Z,99840.09
2023-03-13T14:48:42.826Z,99848.45
2023-03-13T14:51:15.728Z,99837.95
2023-03-13T14:54:12.619Z,99854.70
2023-03-13T14:56:42.600Z,99849.25
2023-03-13T14:59:17.596Z,99846.11
2023-03-13T15:01:45.540Z,99838.59
2023-03-13T15:04:13.316Z,99826.74
2023-03-13T15:06:42.491Z,99828.51
2023-03-13T15:09:09.497Z,99818.11
2023-03-13T15:11:59.579Z,99819.30
2023-03-13T15:14:40.837Z,99813.65
2023-03-13T15:17:24.287Z,99813.42
2023-03-13T15:19:55.745Z,99804.19
2023-03-13T15:22:32.603Z,99803.73
2023-03-13T15:25:06.400Z,99799.38
2023-03-13T15:27:46.036Z,99800.91
2023-03-13T15:30:17.231Z,99800.50
2023-03-13T15:32:46.538Z,99805.27
2023-03-13T15:35:32.776Z,99810.97
2023-03-13T15:38:00.963Z,99813.41
2023-03-13T15:40:28.088Z,99815.64
2023-03-13T15:42:54.891Z,99812.90
2023-03-13T15:45:22.142Z,99817.30
2023-03-13T15:47:49.412Z,99822.77
2023-03-13T15:50:18.181Z,99824.64
2023-03-13T15:52:44.862Z,99816.82
2023-03-13T15:55:16.748Z,99812.66
2023-03-13T15:57:48.661Z,99815.58
2023-03-13T16:00:24.284Z,99812.68
2023-03-13T16:02:51.400Z,99811.98
2023-03-13T16:05:18.618Z,99811.46
2023-03-13T16:07:47.865Z,99810.89
2023-03-13T16:10:19.998Z,99810.36
2023-03-13T16:12:48.386Z,99805.62
2023-03-13T16:15:16.735Z,99801.46
2023-03-13T16:17:43.623Z,99801.79
2023-03-13T16:20:17.930Z,99797.93
2023-03-13T16:22:45.962Z,99797.86
2023-03-13T16:25:13.887Z,99806.17
2023-03-13T16:27:43.210Z,99792.05
2023-03-13T16:30:17.946Z,99795.23
2023-03-13T16:32:48.057Z,99800.99
2023-03-13T16:35:14.633Z,99792.91
2023-03-13T16:37:41.305Z,99795.37
2023-03-13T16:40:16.626Z,99791.16
2023-03-13T16:42:43.289Z,99789.96
2023-03-13T16:45:14.396Z,99798.23
2023-03-13T16:47:42.338Z,99794.05
2023-03-13T16:50:17.838Z,99778.32
2023-03-13T16:52:44.650Z,99778.42
2023-03-13T16:55:11.216Z,99792.53
2023-03-13T16:57:38.512Z,99778.70
2023-03-13T17:00:19.828Z,99781.88
2023-03-13T17:02:47.625Z,99776.98
2023-03-13T17:05:15.535Z,99769.48
2023-03-13T17:07:47.294Z,99777.53
2023-03-13T17:10:30.693Z,99772.66
2023-03-13T17:12:58.623Z,99761.16
2023-03-13T17:15:25.228Z,99765.30
2023-03-13T17:17:53.536Z,99764.54
2023-03-13T17:20:26.917Z,99756.80
2023-03-13T17:22:55.650Z,99765.15
2023-03-13T17:25:22.788Z,99769.52
2023-03-13T17:27:51.604Z,99762.84
2023-03-13T17:30:26.578Z,99769.23
2023-03-13T17:32:53.882Z,99772.54
2023-03-13T17:35:21.362Z,99760.73
2023-03-13T17:37:48.477Z,99758.13
2023-03-13T17:40:26.203Z,99762.95
2023-03-13T17:42:55.548Z,99766.67
2023-03-13T17:45:22.387Z,99767.81
2023-03-13T17:50:22.868Z,99764.04
2023-03-13T17:52:50.537Z,99768.34
2023-03-13T17:55:17.459Z,99766.73
2023-03-13T17:57:44.237Z,99763.96
2023-03-13T18:00:33.179Z,99766.09
2023-03-13T18:03:00.212Z,99762.16
2023-03-13T18:05:27.831Z,99760.24
2023-03-13T18:07:55.582Z,99761.06
2023-03-13T18:10:23.642Z,99758.09
2023-03-13T18:12:50.944Z,99753.56
2023-03-13T18:15:18.881Z,99762.23
2023-03-13T18:17:50.467Z,99757.61
2023-03-13T18:20:20.342Z,99747.81
2023-03-13T18:22:47.516Z,99748.09
2023-03-13T18:25:14.558Z,99751.00
2023-03-13T18:27:43.340Z,99755.64
2023-03-13T18:30:18.446Z,99753.40
2023-03-13T18:32:46.745Z,99755.81
2023-03-13T18:35:13.999Z,99750.23
2023-03-13T18:37:45.108Z,99747.30
2023-03-13T18:40:22.818Z,99749.22
2023-03-13T18:42:50.456Z,99746.64
2023-03-13T18:45:19.573Z,99741.39
2023-03-13T18:47:47.558Z,99740.52
2023-03-13T18:50:19.836Z,99734.66
2023-03-13T18:52:47.045Z,99739.75
2023-03-13T18:55:13.973Z,99728.95
2023-03-13T18:57:44.603Z,99722.70
2023-03-13T19:00:23.824Z,99725.45
2023-03-13T19:02:50.931Z,99720.95
2023-03-13T19:05:18.489Z,99729.04
2023-03-13T19:07:48.016Z,99719.15
2023-03-13T19:10:26.170Z,99719.48
2023-03-13T19:12:56.198Z,99733.20
2023-03-13T19:15:25.332Z,99727.74
2023-03-13T19:17:55.615Z,99721.71
2023-03-13T19:20:27.016Z,99716.14
2023-03-13T19:22:55.973Z,99716.45
2023-03-13T19:25:23.256Z,99717.39
2023-03-13T19:27:51.145Z,99719.85
2023-03-13T19:30:20.763Z,99721.33
2023-03-13T19:32:49.580Z,99719.94
2023-03-13T19:35:18.212Z,99722.73
2023-03-13T19:37:46.868Z,99719.80
2023-03-13T19:40:25.252Z,99714.45
2023-03-13T19:42:52.346Z,99721.69
2023-03-13T19:45:21.106Z,99716.11
2023-03-13T19:47:50.187Z,99714.90
2023-03-13T19:50:22.590Z,99708.16
2023-03-13T19:52:49.674Z,99708.64
2023-03-13T19:55:16.550Z,99719.02
2023-03-13T19:57:43.790Z,99716.11
2023-03-13T20:00:19.214Z,99709.31
2023-03-13T20:02:45.876Z,99709.04
2023-03-13T20:05:13.263Z,99702.48
2023-03-13T20:07:40.628Z,99703.05
2023-03-13T20:10:08.210Z,99699.40
2023-03-13T20:12:35.411Z,99699.86
2023-03-13T20:15:04.759Z,99698.80
2023-03-13T20:17:31.941Z,99694.48
2023-03-13T20:20:00.213Z,99694.27
2023-03-13T20:22:26.869Z,99699.08
2023-03-13T20:24:55.475Z,99695.61
2023-03-13T20:27:23.516Z,99694.34
2023-03-13T20:29:50.244Z,99698.91
2023-03-13T20:32:17.060Z,99689.41
2023-03-13T20:34:44.871Z,99690.16
2023-03-13T20:37:11.947Z,99687.48
2023-03-13T20:39:43.176Z,99691.29
2023-03-13T20:42:10.064Z,99687.14
2023-03-13T20:44:36.864Z,99689.40
2023-03-13T20:47:04.162Z,99683.55
2023-03-13T20:49:31.041Z,99687.83
2023-03-13T20:51:57.635Z,99698.98
2023-03-13T20:54:24.228Z,99696.23
2023-03-13T20:56:50.748Z,99691.45
2023-03-13T20:59:17.430Z,99690.00
2023-03-13T21:01:44.147Z,99688.94
2023-03-13T21:04:12.718Z,99694.36
2023-03-13T21:06:40.104Z,99696.98
2023-03-13T21:09:10.331Z,99699.87
2023-03-13T21:11:37.676Z,99690.44
2023-03-13T21:14:05.653Z,99698.30
2023-03-13T21:16:33.735Z,99694.83
2023-03-13T21:19:04.661Z,99690.70
2023-03-13T21:21:32.844Z,99701.06
2023-03-13T21:24:05.905Z,99687.97
2023-03-13T21:26:34.215Z,99698.21
2023-03-13T21:29:00.915Z,99697.09
2023-03-13T21:31:29.392Z,99699.91
2023-03-13T21:33:56.764Z,99701.91
2023-03-13T21:36:24.434Z,99701.92
2023-03-13T21:38:51.892Z,99695.86
2023-03-13T21:41:23.748Z,99698.58
2023-03-13T21:43:57.857Z,99702.15
2023-03-13T21:46:24.862Z,99699.66
2023-03-13T21:48:51.961Z,99694.19
2023-03-13T21:51:18.739Z,99694.95
2023-03-13T21:53:49.048Z,99694.58
2023-03-13T21:56:16.869Z,99703.79
2023-03-13T21:58:44.840Z,99708.23
2023-03-13T22:01:12.252Z,99707.43
2023-03-13T22:03:39.363Z,99707.27
2023-03-13T22:06:17.143Z,99706.24
2023-03-13T22:08:50.544Z,99691.02
2023-03-13T22:11:22.783Z,99688.94
2023-03-13T22:13:52.152Z,99690.45
2023-03-13T22:16:20.469Z,99695.27
2023-03-13T22:18:50.938Z,99699.44
2023-03-13T22:21:17.932Z,99703.30
2023-03-13T22:23:45.450Z,99694.51
2023-03-13T22:26:14.115Z,99694.05
2023-03-13T22:28:41.166Z,99688.29
2023-03-13T22:31:09.241Z,99692.91
2023-03-13T22:33:36.241Z,99706.48
2023-03-13T22:36:03.937Z,99694.95
2023-03-13T22:38:35.538Z,99687.02
2023-03-13T22:41:05.223Z,99688.70
2023-03-13T22:43:34.780Z,99685.27
2023-03-13T22:46:04.456Z,99680.09
2023-03-13T22:48:31.492Z,99664.30
2023-03-13T22:51:06.644Z,99673.23
2023-03-13T22:53:36.360Z,99664.66
2023-03-13T22:56:05.824Z,99657.59
2023-03-13T22:58:35.021Z,99660.88
2023-03-13T23:01:11.825Z,99652.55
2023-03-13T23:03:40.242Z,99648.92
2023-03-13T23:06:09.217Z,99658.65
2023-03-13T23:08:37.197Z,99644.51
2023-03-13T23:11:04.963Z,99661.11
2023-03-13T23:13:32.310Z,99654.88
2023-03-13T23:16:00.517Z,99654.07
2023-03-13T23:18:27.966Z,99637.64
2023-03-13T23:20:54.841Z,99641.92
2023-03-13T23:23:21.726Z,99634.44
2023-03-13T23:25:49.066Z,99645.80
2023-03-13T23:28:18.180Z,99637.20
2023-03-13T23:30:45.359Z,99639.54
2023-03-13T23:33:13.818Z,99637.86
2023-03-13T23:35:48.950Z,99633.21
2023-03-13T23:38:17.837Z,99637.57
2023-03-13T23:40:46.001Z,99645.02
2023-03-13T23:43:12.566Z,99634.48
2023-03-13T23:45:39.173Z,99633.73
2023-03-13T23:48:06.617Z,99627.95
2023-03-13T23:50:33.417Z,99631.79
2023-03-13T23:53:00.368Z,99627.16
2023-03-13T23:55:27.677Z,99635.63
2023-03-13T23:57:59.363Z,99629.02
